METAR Data
IDs: Format: Raw Decoded Include TAF

Data at: 1407 UTC 22 Apr 2021

KSEF 221355Z AUTO 02013KT 10SM CLR 21/14 A3010 RMK AO2 T02150138
KSEF 221335Z AUTO 03013KT 10SM CLR 21/14 A3010 RMK AO2 T02110141
KSEF 221315Z AUTO 02012KT 10SM CLR 20/15 A3010 RMK AO2 T02020147
KSEF 221255Z AUTO 02011KT 10SM CLR 20/15 A3010 RMK AO2 T01960149
KSEF 221235Z AUTO 02009KT 10SM CLR 19/16 A3009 RMK AO2 T01890156
KSEF 221215Z AUTO 36008KT 10SM CLR 18/16 A3009 RMK AO2 T01800162
KSEF 221155Z AUTO 35005KT 10SM CLR 17/16 A3009 RMK AO2 T01720160 10187 20154
KSEF 221135Z AUTO 35006KT 10SM CLR 16/15 A3008 RMK AO2 T01640153
KSEF 221115Z AUTO 35006KT 10SM CLR 16/15 A3007 RMK AO2 T01570148
KSEF 221055Z AUTO 33006KT 10SM CLR 15/15 A3007 RMK AO2 T01540147
KSEF 221035Z AUTO 33007KT 10SM CLR 16/15 A3006 RMK AO2 T01570147
KSEF 221015Z AUTO 33006KT 10SM CLR 16/15 A3005 RMK AO2 T01580148
KSEF 220955Z AUTO 33005KT 10SM CLR 16/15 A3004 RMK AO2 T01570146
KSEF 220935Z AUTO 32006KT 10SM CLR 17/15 A3004 RMK AO2 T01680150
KSEF 220915Z AUTO 30005KT 10SM CLR 16/15 A3004 RMK AO2 T01650150
KSEF 220855Z AUTO 31005KT 10SM CLR 16/15 A3003 RMK AO2 T01590145
KSEF 220835Z AUTO 30004KT 10SM CLR 16/14 A3003 RMK AO2 T01620145
KSEF 220815Z AUTO 30003KT 10SM CLR 16/14 A3003 RMK AO2 T01640142
KSEF 220755Z AUTO 27004KT 10SM CLR 17/14 A3002 RMK AO2 T01660142
KSEF 220735Z AUTO 29003KT 10SM CLR 17/14 A3002 RMK AO2 T01720143
KSEF 220710Z AUTO 29004KT 10SM CLR 17/14 A3003 RMK AO2 T01750142
KSEF 220655Z AUTO 29004KT 10SM CLR 18/14 A3003 RMK AO2 T01780142
KSEF 220635Z AUTO 29005KT 10SM CLR 18/14 A3003 RMK AO2 T01820143
KSEF 220615Z AUTO 27005KT 10SM CLR 19/14 A3003 RMK AO2 T01860139
KSEF 220555Z AUTO 26004KT 10SM CLR 19/14 A3004 RMK AO2 T01860139 10257 20185
KSEF 220535Z AUTO 29006KT 10SM CLR 19/14 A3004 RMK AO2 T01890138
KSEF 220515Z AUTO 30006KT 10SM CLR 19/13 A3004 RMK AO2 T01910135
KSEF 220455Z AUTO 29004KT 10SM CLR 19/14 A3003 RMK AO2 T01910137
KSEF 220435Z AUTO 33007KT 10SM CLR 19/14 A3002 RMK AO2
KSEF 220415Z AUTO 31006KT 10SM CLR 20/14 A3002 RMK AO2 T01960139
KSEF 220355Z AUTO 31006KT 10SM CLR 20/14 A3002 RMK AO2 T01980143
KSEF 220335Z AUTO 31007KT 10SM CLR 20/14 A3002 RMK AO2 T02030143
KSEF 220315Z AUTO 31007KT 10SM CLR 21/15 A3002 RMK AO2 T02050146
KSEF 220255Z AUTO 30009KT 10SM CLR 21/15 A3002 RMK AO2 T02090148
KSEF 220235Z AUTO 32008KT 10SM CLR 21/15 A3001 RMK AO2 T02110151
KSEF 220215Z AUTO 31007KT 10SM CLR 22/15 A3002 RMK AO2 T02210147
KSEF 220155Z AUTO 30005KT 10SM CLR 23/15 A3001 RMK AO2 T02250146
KSEF 220135Z AUTO 29006KT 10SM CLR 23/14 A3001 RMK AO2 T02320141
KSEF 220115Z AUTO 28008KT 10SM CLR 24/13 A3001 RMK AO2 T02370135
KSEF 220055Z AUTO 26007KT 10SM CLR 24/14 A3000 RMK AO2 T02420138
KSEF 220035Z AUTO 27009KT 10SM CLR 25/14 A3000 RMK AO2 T02490142
KSEF 220015Z AUTO 27006KT 10SM CLR 25/15 A2999 RMK AO2 T02500155
KSEF 212355Z AUTO 25007KT 10SM CLR 26/17 A2998 RMK AO2 T02590168 10289 20257 402890206
KSEF 212335Z AUTO 26006KT 10SM SCT070 27/17 A2998 RMK AO2 T02660170
KSEF 212315Z AUTO 25007KT 10SM SCT070 27/17 A2998 RMK AO2 T02700167
KSEF 212255Z AUTO 26009KT 10SM CLR 28/17 A2998 RMK AO2 T02750167
KSEF 212235Z AUTO 24010KT 10SM CLR 28/17 A2997 RMK AO2 T02810172
KSEF 212215Z AUTO 25007KT 10SM CLR 28/17 A2997 RMK AO2 T02840168
KSEF 212155Z AUTO 25007KT 10SM CLR 29/17 A2997 RMK AO2 T02860168
KSEF 212135Z AUTO 29008KT 10SM CLR 29/17 A2997 RMK AO2 T02870175
KSEF 212115Z AUTO 26006KT 10SM CLR 29/17 A2996 RMK AO2 T02860172
KSEF 212055Z AUTO 26006KT 10SM CLR 28/17 A2996 RMK AO2 T02820168
KSEF 212035Z AUTO 27009KT 10SM CLR 28/17 A2997 RMK AO2 T02830165
KSEF 212015Z AUTO 27005KT 10SM CLR 28/16 A2997 RMK AO2 T02830163
KSEF 211955Z AUTO 27004KT 10SM SCT065 28/15 A2997 RMK AO2 T02760155
KSEF 211935Z AUTO 27006KT 10SM SCT065 28/15 A2998 RMK AO2 T02750150
KSEF 211915Z AUTO 28008KT 10SM BKN065 27/16 A2999 RMK AO2 T02660155
KSEF 211855Z AUTO 27006KT 10SM BKN060 BKN075 27/16 A2999 RMK AO2 T02670158
KSEF 211835Z AUTO 27006KT 10SM BKN060 BKN075 27/16 A3000 RMK AO2 T02690155
KSEF 211815Z AUTO 26006KT 10SM BKN060 OVC075 27/15 A3001 RMK AO2 T02710147
KSEF 211755Z AUTO 31004KT 10SM BKN060 OVC075 27/15 A3002 RMK AO2 T02720146 10278 20223
KSEF 211735Z AUTO 31005KT 10SM OVC060 27/14 A3002 RMK AO2
KSEF 211715Z AUTO 30006KT 10SM OVC060 27/14 A3002 RMK AO2 T02710144
KSEF 211655Z AUTO 31005KT 10SM OVC070 27/16 A3002 RMK AO2 T02710155
KSEF 211635Z AUTO 33004KT 10SM OVC070 27/17 A3002 RMK AO2 T02700166
KSEF 211615Z AUTO 01008KT 10SM SCT070 28/15 A3002 RMK AO2 T02760147
KSEF 211555Z AUTO 34007KT 7SM HZ SCT070 27/15 A3002 RMK AO2 T02710151
KSEF 211535Z AUTO 34005KT 10SM SCT070 26/18 A3003 RMK AO2 LTG DSNT S T02630182
KSEF 211515Z AUTO 30006KT 10SM CLR 27/19 A3003 RMK AO2 T02650187
KSEF 211455Z AUTO 34007KT 10SM SCT019 SCT055 26/19 A3002 RMK AO2 T02610189
KSEF 211435Z AUTO 34008KT 10SM SCT015 SCT055 26/20 A3001 RMK AO2 T02550204
KSEF 211415Z AUTO 32009KT 10SM SCT015 OVC055 25/21 A3000 RMK AO2 T02530211
KSEF 211355Z AUTO 32005KT 10SM SCT013 OVC055 25/22 A3000 RMK AO2 T02490218
KSEF 211335Z AUTO 34007KT 10SM BKN011 OVC065 24/22 A3000 RMK AO2 T02450216
KSEF 211315Z AUTO 33008KT 10SM BKN009 BKN014 OVC065 24/22 A3000 RMK AO2 T02420218
KSEF 211255Z AUTO 32005KT 10SM SCT009 SCT014 OVC065 24/22 A3000 RMK AO2 T02440225
KSEF 211235Z AUTO 29003KT 10SM SCT009 SCT029 BKN065 24/22 A3000 RMK AO2 T02360224
KSEF 211215Z AUTO 00000KT 10SM SCT009 BKN019 OVC038 23/22 A3000 RMK AO2 T02270221
KSEF 211155Z AUTO 00000KT 10SM SCT015 BKN023 OVC028 22/22 A3000 RMK AO2 LTG DSNT SW T02230218 10226 20213 70098
KSEF 211135Z AUTO 22003KT 10SM SCT021 BKN030 BKN039 22/22 A3000 RMK AO2 T02200216
KSEF 211115Z AUTO 18003KT 10SM SCT039 BKN065 22/22 A2999 RMK AO2 T02230217
KSEF 211055Z AUTO 00000KT 10SM BKN041 OVC055 22/22 A2998 RMK AO2 T02250218
KSEF 211035Z AUTO 00000KT 10SM OVC039 22/22 A2998 RMK AO2 T02250218
KSEF 211015Z AUTO 00000KT 10SM OVC039 22/22 A2997 RMK AO2 LTG DSNT SW T02230216
KSEF 210955Z AUTO 20003KT 10SM SCT024 SCT032 OVC039 23/22 A2997 RMK AO2 LTG DSNT SW T02260217
KSEF 210935Z AUTO 28003KT 10SM SCT024 OVC033 23/22 A2997 RMK AO2 LTG DSNT SW T02250216
KSEF 210915Z AUTO 26004KT 10SM OVC031 23/22 A2997 RMK AO2 T02260216
KSEF 210855Z AUTO 24003KT 10SM OVC031 22/21 A2997 RMK AO2 T02240214
KSEF 210835Z AUTO 25005KT 10SM SCT019 SCT024 OVC031 22/21 A2996 RMK AO2 T02230213
KSEF 210815Z AUTO 23005KT 10SM OVC019 22/21 A2996 RMK AO2 T02230212
KSEF 210755Z AUTO 23005KT 10SM OVC017 22/21 A2995 RMK AO2 T02220212
KSEF 210735Z AUTO 22004KT 10SM SCT017 22/21 A2995 RMK AO2 T02160209
KSEF 210715Z AUTO 19004KT 10SM SCT039 22/21 A2995 RMK AO2 T02170207
KSEF 210655Z AUTO 00000KT 10SM OVC039 22/21 A2995 RMK AO2 T02180208
KSEF 210635Z AUTO 22004KT 10SM OVC035 22/21 A2996 RMK AO2 T02210209
KSEF 210615Z AUTO 00000KT 10SM BKN028 OVC034 22/21 A2996 RMK AO2 T02200208
KSEF 210555Z AUTO 22003KT 10SM OVC028 22/21 A2997 RMK AO2 T02180209 10256 20206
KSEF 210535Z AUTO 00000KT 10SM OVC026 21/21 A2997 RMK AO2 T02090206
KSEF 210515Z AUTO 17003KT 10SM SCT026 BKN110 21/21 A2997 RMK AO2 T02080206
KSEF 210455Z AUTO 18003KT 10SM SCT110 21/21 A2998 RMK AO2 T02100206
KSEF 210435Z AUTO 00000KT 10SM CLR 21/21 A2997 RMK AO2 T02120206
KSEF 210415Z AUTO 00000KT 10SM CLR 21/21 A2997 RMK AO2 T02120208
KSEF 210355Z AUTO 00000KT 10SM CLR 21/20 A2998 RMK AO2 T02070202
KSEF 210335Z AUTO 00000KT 10SM CLR 21/21 A2997 RMK AO2 T02140210
KSEF 210315Z AUTO 36004KT 10SM SCT110 21/21 A2998 RMK AO2 T02140208
KSEF 210255Z AUTO 00000KT 10SM SCT035 SCT110 22/21 A2998 RMK AO2 T02180211
KSEF 210235Z AUTO 00000KT 10SM SCT035 BKN110 22/21 A2998 RMK AO2 T02200208
KSEF 210215Z AUTO 32003KT 10SM BKN110 22/20 A2998 RMK AO2 T02250201